sensor_id;sensor_type;location;lat;lon;timestamp;temperature;humidity
71837;DHT22;59686;51.716;7.016;2022-12-13T00:00:16;5.10;71.40
71837;DHT22;59686;51.716;7.016;2022-12-13T00:05:42;5.10;71.30
71837;DHT22;59686;51.716;7.016;2022-12-13T00:08:08;5.10;71.20
71837;DHT22;59686;51.716;7.016;2022-12-13T00:10:34;5.10;71.20
71837;DHT22;59686;51.716;7.016;2022-12-13T00:12:59;5.10;71.20
71837;DHT22;59686;51.716;7.016;2022-12-13T00:15:27;5.10;71.20
71837;DHT22;59686;51.716;7.016;2022-12-13T00:17:55;5.10;71.10
71837;DHT22;59686;51.716;7.016;2022-12-13T00:20:21;5.10;71.10
71837;DHT22;59686;51.716;7.016;2022-12-13T00:22:47;5.20;71.10
71837;DHT22;59686;51.716;7.016;2022-12-13T00:25:18;5.10;71.00
71837;DHT22;59686;51.716;7.016;2022-12-13T00:27:45;5.40;71.10
71837;DHT22;59686;51.716;7.016;2022-12-13T00:30:15;5.20;71.00
71837;DHT22;59686;51.716;7.016;2022-12-13T00:32:41;5.10;70.90
71837;DHT22;59686;51.716;7.016;2022-12-13T00:35:07;5.10;70.90
71837;DHT22;59686;51.716;7.016;2022-12-13T00:37:33;5.10;70.90
71837;DHT22;59686;51.716;7.016;2022-12-13T00:39:58;5.00;70.80
71837;DHT22;59686;51.716;7.016;2022-12-13T00:42:24;5.00;70.70
71837;DHT22;59686;51.716;7.016;2022-12-13T00:44:50;5.00;70.80
71837;DHT22;59686;51.716;7.016;2022-12-13T00:47:16;5.00;70.70
71837;DHT22;59686;51.716;7.016;2022-12-13T00:49:43;5.00;71.10
71837;DHT22;59686;51.716;7.016;2022-12-13T00:52:09;5.00;70.70
71837;DHT22;59686;51.716;7.016;2022-12-13T00:54:35;4.90;70.50
71837;DHT22;59686;51.716;7.016;2022-12-13T00:57:00;5.00;70.50
71837;DHT22;59686;51.716;7.016;2022-12-13T00:59:26;5.00;70.60
71837;DHT22;59686;51.716;7.016;2022-12-13T01:01:52;5.00;70.60
71837;DHT22;59686;51.716;7.016;2022-12-13T01:04:18;5.00;70.60
71837;DHT22;59686;51.716;7.016;2022-12-13T01:06:45;5.00;70.40
71837;DHT22;59686;51.716;7.016;2022-12-13T01:09:20;5.00;70.50
71837;DHT22;59686;51.716;7.016;2022-12-13T01:11:49;5.00;70.50
71837;DHT22;59686;51.716;7.016;2022-12-13T01:14:15;5.00;71.10
71837;DHT22;59686;51.716;7.016;2022-12-13T01:16:41;5.00;70.40
71837;DHT22;59686;51.716;7.016;2022-12-13T01:19:07;5.00;70.30
71837;DHT22;59686;51.716;7.016;2022-12-13T01:21:33;5.00;70.30
71837;DHT22;59686;51.716;7.016;2022-12-13T01:24:01;4.90;70.20
71837;DHT22;59686;51.716;7.016;2022-12-13T01:26:27;5.00;70.30
71837;DHT22;59686;51.716;7.016;2022-12-13T01:28:53;4.90;70.20
71837;DHT22;59686;51.716;7.016;2022-12-13T01:31:19;5.00;70.20
71837;DHT22;59686;51.716;7.016;2022-12-13T01:33:45;4.90;70.10
71837;DHT22;59686;51.716;7.016;2022-12-13T01:36:14;4.90;70.10
71837;DHT22;59686;51.716;7.016;2022-12-13T01:38:50;4.90;70.00
71837;DHT22;59686;51.716;7.016;2022-12-13T01:41:18;4.90;70.10
71837;DHT22;59686;51.716;7.016;2022-12-13T01:46:14;4.90;70.00
71837;DHT22;59686;51.716;7.016;2022-12-13T01:54:18;4.90;69.80
71837;DHT22;59686;51.716;7.016;2022-12-13T01:56:53;4.90;69.80
71837;DHT22;59686;51.716;7.016;2022-12-13T01:59:21;4.90;69.80
71837;DHT22;59686;51.716;7.016;2022-12-13T02:01:49;4.90;69.80
71837;DHT22;59686;51.716;7.016;2022-12-13T02:04:22;4.90;69.70
71837;DHT22;59686;51.716;7.016;2022-12-13T02:06:52;4.90;69.80
71837;DHT22;59686;51.716;7.016;2022-12-13T02:09:18;4.90;69.70
71837;DHT22;59686;51.716;7.016;2022-12-13T02:11:45;4.80;69.60
71837;DHT22;59686;51.716;7.016;2022-12-13T02:14:11;5.00;69.70
71837;DHT22;59686;51.716;7.016;2022-12-13T02:24:56;4.80;69.50
71837;DHT22;59686;51.716;7.016;2022-12-13T02:33:09;4.80;69.40
71837;DHT22;59686;51.716;7.016;2022-12-13T02:41:25;4.80;69.30
71837;DHT22;59686;51.716;7.016;2022-12-13T02:44:01;4.80;69.30
71837;DHT22;59686;51.716;7.016;2022-12-13T02:46:32;4.80;69.30
71837;DHT22;59686;51.716;7.016;2022-12-13T02:48:59;4.70;69.20
71837;DHT22;59686;51.716;7.016;2022-12-13T02:51:26;4.70;69.20
71837;DHT22;59686;51.716;7.016;2022-12-13T02:53:53;4.80;69.20
71837;DHT22;59686;51.716;7.016;2022-12-13T02:56:18;4.70;69.10
71837;DHT22;59686;51.716;7.016;2022-12-13T02:58:50;4.80;69.10
71837;DHT22;59686;51.716;7.016;2022-12-13T03:01:39;4.70;68.90
71837;DHT22;59686;51.716;7.016;2022-12-13T03:08:06;4.80;69.20
71837;DHT22;59686;51.716;7.016;2022-12-13T03:10:42;4.70;69.60
71837;DHT22;59686;51.716;7.016;2022-12-13T03:13:27;4.70;68.90
71837;DHT22;59686;51.716;7.016;2022-12-13T03:16:16;4.70;68.90
71837;DHT22;59686;51.716;7.016;2022-12-13T03:18:45;4.70;68.90
71837;DHT22;59686;51.716;7.016;2022-12-13T03:21:12;4.70;68.80
71837;DHT22;59686;51.716;7.016;2022-12-13T03:23:38;4.70;69.50
71837;DHT22;59686;51.716;7.016;2022-12-13T03:26:08;4.70;68.80
71837;DHT22;59686;51.716;7.016;2022-12-13T03:28:35;4.70;68.80
71837;DHT22;59686;51.716;7.016;2022-12-13T03:31:02;4.70;68.70
71837;DHT22;59686;51.716;7.016;2022-12-13T03:33:28;4.50;68.50
71837;DHT22;59686;51.716;7.016;2022-12-13T03:35:54;4.70;68.60
71837;DHT22;59686;51.716;7.016;2022-12-13T03:38:20;4.70;68.60
71837;DHT22;59686;51.716;7.016;2022-12-13T03:40:46;4.70;68.60
71837;DHT22;59686;51.716;7.016;2022-12-13T03:43:12;4.60;68.50
71837;DHT22;59686;51.716;7.016;2022-12-13T03:45:38;4.60;68.50
71837;DHT22;59686;51.716;7.016;2022-12-13T03:48:04;4.80;68.50
71837;DHT22;59686;51.716;7.016;2022-12-13T03:50:29;4.60;68.40
71837;DHT22;59686;51.716;7.016;2022-12-13T03:53:00;4.60;68.40
71837;DHT22;59686;51.716;7.016;2022-12-13T03:55:27;4.60;68.40
71837;DHT22;59686;51.716;7.016;2022-12-13T03:57:53;4.60;68.40
71837;DHT22;59686;51.716;7.016;2022-12-13T04:00:19;4.60;68.40
71837;DHT22;59686;51.716;7.016;2022-12-13T04:02:45;4.60;68.30
71837;DHT22;59686;51.716;7.016;2022-12-13T04:05:14;4.60;68.10
71837;DHT22;59686;51.716;7.016;2022-12-13T04:07:47;4.60;68.20
71837;DHT22;59686;51.716;7.016;2022-12-13T04:10:30;4.60;68.20
71837;DHT22;59686;51.716;7.016;2022-12-13T04:12:57;4.60;68.20
71837;DHT22;59686;51.716;7.016;2022-12-13T04:15:41;4.60;68.10
71837;DHT22;59686;51.716;7.016;2022-12-13T04:18:19;4.60;68.10
71837;DHT22;59686;51.716;7.016;2022-12-13T04:20:46;4.50;68.00
71837;DHT22;59686;51.716;7.016;2022-12-13T04:23:12;4.60;68.00
71837;DHT22;59686;51.716;7.016;2022-12-13T04:25:39;4.60;68.00
71837;DHT22;59686;51.716;7.016;2022-12-13T04:28:05;4.50;67.90
71837;DHT22;59686;51.716;7.016;2022-12-13T04:30:31;4.50;68.00
71837;DHT22;59686;51.716;7.016;2022-12-13T04:33:01;4.60;68.00
71837;DHT22;59686;51.716;7.016;2022-12-13T04:35:28;4.50;67.80
71837;DHT22;59686;51.716;7.016;2022-12-13T04:37:54;4.50;67.80
71837;DHT22;59686;51.716;7.016;2022-12-13T04:40:21;4.50;67.80
71837;DHT22;59686;51.716;7.016;2022-12-13T04:42:49;4.50;67.80
71837;DHT22;59686;51.716;7.016;2022-12-13T04:45:16;4.50;67.80
71837;DHT22;59686;51.716;7.016;2022-12-13T04:47:45;4.50;67.80
71837;DHT22;59686;51.716;7.016;2022-12-13T04:50:10;4.50;67.70
71837;DHT22;59686;51.716;7.016;2022-12-13T04:52:36;4.50;67.70
71837;DHT22;59686;51.716;7.016;2022-12-13T04:55:07;4.50;67.70
71837;DHT22;59686;51.716;7.016;2022-12-13T04:57:33;4.50;67.70
71837;DHT22;59686;51.716;7.016;2022-12-13T04:59:59;4.50;67.70
71837;DHT22;59686;51.716;7.016;2022-12-13T05:02:32;4.50;67.70
71837;DHT22;59686;51.716;7.016;2022-12-13T05:04:57;4.50;67.60
71837;DHT22;59686;51.716;7.016;2022-12-13T05:07:25;4.50;68.30
71837;DHT22;59686;51.716;7.016;2022-12-13T05:09:51;4.50;67.60
71837;DHT22;59686;51.716;7.016;2022-12-13T05:12:16;4.50;67.40
71837;DHT22;59686;51.716;7.016;2022-12-13T05:14:42;4.50;67.40
71837;DHT22;59686;51.716;7.016;2022-12-13T05:17:08;4.40;67.30
71837;DHT22;59686;51.716;7.016;2022-12-13T05:19:33;4.40;67.30
71837;DHT22;59686;51.716;7.016;2022-12-13T05:22:03;4.40;67.30
71837;DHT22;59686;51.716;7.016;2022-12-13T05:24:30;4.40;67.20
71837;DHT22;59686;51.716;7.016;2022-12-13T05:26:56;4.40;67.20
71837;DHT22;59686;51.716;7.016;2022-12-13T05:29:23;4.40;67.30
71837;DHT22;59686;51.716;7.016;2022-12-13T05:31:48;4.40;67.10
71837;DHT22;59686;51.716;7.016;2022-12-13T05:34:14;4.40;67.20
71837;DHT22;59686;51.716;7.016;2022-12-13T05:36:40;4.40;67.10
71837;DHT22;59686;51.716;7.016;2022-12-13T05:39:17;4.40;67.10
71837;DHT22;59686;51.716;7.016;2022-12-13T05:41:43;4.40;67.10
71837;DHT22;59686;51.716;7.016;2022-12-13T05:44:08;4.40;67.10
71837;DHT22;59686;51.716;7.016;2022-12-13T05:46:35;4.40;67.90
71837;DHT22;59686;51.716;7.016;2022-12-13T05:49:01;4.40;67.80
71837;DHT22;59686;51.716;7.016;2022-12-13T05:51:27;4.40;67.00
71837;DHT22;59686;51.716;7.016;2022-12-13T05:54:22;4.40;67.70
71837;DHT22;59686;51.716;7.016;2022-12-13T05:56:48;4.40;66.90
71837;DHT22;59686;51.716;7.016;2022-12-13T05:59:14;4.40;66.90
71837;DHT22;59686;51.716;7.016;2022-12-13T06:01:39;4.40;66.90
71837;DHT22;59686;51.716;7.016;2022-12-13T06:04:05;4.40;66.90
71837;DHT22;59686;51.716;7.016;2022-12-13T06:06:32;4.30;67.00
71837;DHT22;59686;51.716;7.016;2022-12-13T06:08:58;4.30;67.60
71837;DHT22;59686;51.716;7.016;2022-12-13T06:11:24;4.30;66.90
71837;DHT22;59686;51.716;7.016;2022-12-13T06:13:51;4.30;66.80
71837;DHT22;59686;51.716;7.016;2022-12-13T06:16:17;4.30;66.70
71837;DHT22;59686;51.716;7.016;2022-12-13T06:19:05;4.30;66.80
71837;DHT22;59686;51.716;7.016;2022-12-13T06:21:32;4.30;66.70
71837;DHT22;59686;51.716;7.016;2022-12-13T06:23:57;4.30;66.70
71837;DHT22;59686;51.716;7.016;2022-12-13T06:26:24;4.30;66.80
71837;DHT22;59686;51.716;7.016;2022-12-13T06:28:50;4.30;66.70
71837;DHT22;59686;51.716;7.016;2022-12-13T06:31:15;4.30;66.70
71837;DHT22;59686;51.716;7.016;2022-12-13T06:33:41;4.30;66.60
71837;DHT22;59686;51.716;7.016;2022-12-13T06:36:07;4.30;66.50
71837;DHT22;59686;51.716;7.016;2022-12-13T06:38:33;4.20;66.50
71837;DHT22;59686;51.716;7.016;2022-12-13T06:41:10;4.20;66.50
71837;DHT22;59686;51.716;7.016;2022-12-13T06:43:36;4.20;66.50
71837;DHT22;59686;51.716;7.016;2022-12-13T06:46:03;4.20;66.50
71837;DHT22;59686;51.716;7.016;2022-12-13T06:48:30;4.20;66.50
71837;DHT22;59686;51.716;7.016;2022-12-13T06:51:03;4.20;66.50
71837;DHT22;59686;51.716;7.016;2022-12-13T06:53:29;4.20;66.40
71837;DHT22;59686;51.716;7.016;2022-12-13T06:55:55;4.20;66.40
71837;DHT22;59686;51.716;7.016;2022-12-13T06:58:22;4.20;66.30
71837;DHT22;59686;51.716;7.016;2022-12-13T07:01:10;4.20;66.40
71837;DHT22;59686;51.716;7.016;2022-12-13T07:03:36;4.20;66.40
71837;DHT22;59686;51.716;7.016;2022-12-13T07:06:13;4.20;66.40
71837;DHT22;59686;51.716;7.016;2022-12-13T07:08:46;4.20;66.30
71837;DHT22;59686;51.716;7.016;2022-12-13T07:11:13;4.20;66.30
71837;DHT22;59686;51.716;7.016;2022-12-13T07:13:41;4.20;66.30
71837;DHT22;59686;51.716;7.016;2022-12-13T07:16:08;4.20;66.30
71837;DHT22;59686;51.716;7.016;2022-12-13T07:18:34;4.10;66.20
71837;DHT22;59686;51.716;7.016;2022-12-13T07:20:59;4.10;66.20
71837;DHT22;59686;51.716;7.016;2022-12-13T07:23:25;4.10;66.20
71837;DHT22;59686;51.716;7.016;2022-12-13T07:25:51;4.10;66.10
71837;DHT22;59686;51.716;7.016;2022-12-13T07:28:18;4.20;66.10
71837;DHT22;59686;51.716;7.016;2022-12-13T07:31:02;4.10;65.90
71837;DHT22;59686;51.716;7.016;2022-12-13T07:33:28;4.20;66.00
71837;DHT22;59686;51.716;7.016;2022-12-13T07:36:02;4.10;65.90
71837;DHT22;59686;51.716;7.016;2022-12-13T07:38:28;4.10;65.90
71837;DHT22;59686;51.716;7.016;2022-12-13T07:40:57;4.10;65.80
71837;DHT22;59686;51.716;7.016;2022-12-13T07:43:23;4.10;65.90
71837;DHT22;59686;51.716;7.016;2022-12-13T07:45:50;4.10;66.00
71837;DHT22;59686;51.716;7.016;2022-12-13T07:48:15;4.10;66.00
71837;DHT22;59686;51.716;7.016;2022-12-13T07:50:41;4.10;66.00
71837;DHT22;59686;51.716;7.016;2022-12-13T07:53:08;4.10;66.00
71837;DHT22;59686;51.716;7.016;2022-12-13T07:55:34;4.10;66.00
71837;DHT22;59686;51.716;7.016;2022-12-13T07:58:06;4.10;65.90
71837;DHT22;59686;51.716;7.016;2022-12-13T08:00:32;4.10;65.90
71837;DHT22;59686;51.716;7.016;2022-12-13T08:02:59;4.10;65.80
71837;DHT22;59686;51.716;7.016;2022-12-13T08:05:25;4.10;65.80
71837;DHT22;59686;51.716;7.016;2022-12-13T08:08:11;4.10;65.80
71837;DHT22;59686;51.716;7.016;2022-12-13T08:10:37;4.10;66.00
71837;DHT22;59686;51.716;7.016;2022-12-13T08:13:03;4.10;66.00
71837;DHT22;59686;51.716;7.016;2022-12-13T08:15:29;4.10;66.00
71837;DHT22;59686;51.716;7.016;2022-12-13T08:17:56;4.00;65.90
71837;DHT22;59686;51.716;7.016;2022-12-13T08:20:22;4.00;66.00
71837;DHT22;59686;51.716;7.016;2022-12-13T08:22:55;4.00;66.00
71837;DHT22;59686;51.716;7.016;2022-12-13T08:25:21;4.10;65.90
71837;DHT22;59686;51.716;7.016;2022-12-13T08:27:47;4.10;65.90
71837;DHT22;59686;51.716;7.016;2022-12-13T08:30:13;4.00;66.00
71837;DHT22;59686;51.716;7.016;2022-12-13T08:32:38;4.10;66.00
71837;DHT22;59686;51.716;7.016;2022-12-13T08:35:05;4.00;66.10
71837;DHT22;59686;51.716;7.016;2022-12-13T08:37:31;4.00;66.10
71837;DHT22;59686;51.716;7.016;2022-12-13T08:39:58;4.00;66.10
71837;DHT22;59686;51.716;7.016;2022-12-13T08:42:23;4.00;66.20
71837;DHT22;59686;51.716;7.016;2022-12-13T08:44:51;4.00;66.20
71837;DHT22;59686;51.716;7.016;2022-12-13T08:47:18;4.00;66.30
71837;DHT22;59686;51.716;7.016;2022-12-13T08:49:44;4.00;66.40
71837;DHT22;59686;51.716;7.016;2022-12-13T08:52:09;4.00;66.50
71837;DHT22;59686;51.716;7.016;2022-12-13T08:54:35;4.00;66.50
71837;DHT22;59686;51.716;7.016;2022-12-13T08:57:01;4.00;66.60
71837;DHT22;59686;51.716;7.016;2022-12-13T08:59:26;4.00;66.70
71837;DHT22;59686;51.716;7.016;2022-12-13T09:01:57;4.00;66.80
71837;DHT22;59686;51.716;7.016;2022-12-13T09:04:23;4.00;66.80
71837;DHT22;59686;51.716;7.016;2022-12-13T09:06:48;4.10;67.00
71837;DHT22;59686;51.716;7.016;2022-12-13T09:09:14;4.00;66.90
71837;DHT22;59686;51.716;7.016;2022-12-13T09:11:39;4.00;67.00
71837;DHT22;59686;51.716;7.016;2022-12-13T09:14:06;4.00;67.10
71837;DHT22;59686;51.716;7.016;2022-12-13T09:16:32;4.00;67.20
71837;DHT22;59686;51.716;7.016;2022-12-13T09:19:01;4.00;67.20
71837;DHT22;59686;51.716;7.016;2022-12-13T09:21:27;4.10;67.30
71837;DHT22;59686;51.716;7.016;2022-12-13T09:23:53;4.00;67.30
71837;DHT22;59686;51.716;7.016;2022-12-13T09:26:19;4.00;67.30
71837;DHT22;59686;51.716;7.016;2022-12-13T09:28:45;4.00;67.50
71837;DHT22;59686;51.716;7.016;2022-12-13T09:31:13;4.00;67.50
71837;DHT22;59686;51.716;7.016;2022-12-13T09:33:39;4.00;67.50
71837;DHT22;59686;51.716;7.016;2022-12-13T09:36:06;4.00;67.60
71837;DHT22;59686;51.716;7.016;2022-12-13T09:38:33;4.00;67.70
71837;DHT22;59686;51.716;7.016;2022-12-13T09:41:08;4.00;67.80
71837;DHT22;59686;51.716;7.016;2022-12-13T09:43:58;4.00;67.80
71837;DHT22;59686;51.716;7.016;2022-12-13T09:46:46;4.00;67.80
71837;DHT22;59686;51.716;7.016;2022-12-13T09:49:27;4.10;67.90
71837;DHT22;59686;51.716;7.016;2022-12-13T09:51:58;4.10;68.00
71837;DHT22;59686;51.716;7.016;2022-12-13T09:54:24;4.10;68.00
71837;DHT22;59686;51.716;7.016;2022-12-13T09:56:51;4.10;68.00
71837;DHT22;59686;51.716;7.016;2022-12-13T09:59:24;4.10;68.00
71837;DHT22;59686;51.716;7.016;2022-12-13T10:01:51;4.10;68.10
71837;DHT22;59686;51.716;7.016;2022-12-13T10:04:18;4.10;68.10
71837;DHT22;59686;51.716;7.016;2022-12-13T10:06:44;4.10;68.10
71837;DHT22;59686;51.716;7.016;2022-12-13T10:09:12;4.10;68.20
71837;DHT22;59686;51.716;7.016;2022-12-13T10:11:50;4.10;68.20
71837;DHT22;59686;51.716;7.016;2022-12-13T10:16:50;4.10;69.10
71837;DHT22;59686;51.716;7.016;2022-12-13T10:19:20;4.10;68.40
71837;DHT22;59686;51.716;7.016;2022-12-13T10:21:47;4.10;68.50
71837;DHT22;59686;51.716;7.016;2022-12-13T10:24:22;4.10;68.40
71837;DHT22;59686;51.716;7.016;2022-12-13T10:26:57;4.10;68.50
71837;DHT22;59686;51.716;7.016;2022-12-13T10:29:24;4.10;68.50
71837;DHT22;59686;51.716;7.016;2022-12-13T10:31:51;4.10;68.50
71837;DHT22;59686;51.716;7.016;2022-12-13T10:36:59;4.10;68.70
71837;DHT22;59686;51.716;7.016;2022-12-13T10:39:44;4.10;68.70
71837;DHT22;59686;51.716;7.016;2022-12-13T10:42:15;4.10;68.80
71837;DHT22;59686;51.716;7.016;2022-12-13T10:44:41;4.10;68.80
71837;DHT22;59686;51.716;7.016;2022-12-13T10:50:01;4.10;68.80
71837;DHT22;59686;51.716;7.016;2022-12-13T10:52:34;4.10;68.90
71837;DHT22;59686;51.716;7.016;2022-12-13T10:55:10;4.10;68.90
71837;DHT22;59686;51.716;7.016;2022-12-13T10:57:52;4.20;69.00
71837;DHT22;59686;51.716;7.016;2022-12-13T11:00:34;4.10;69.00
71837;DHT22;59686;51.716;7.016;2022-12-13T11:03:01;4.10;69.00
71837;DHT22;59686;51.716;7.016;2022-12-13T11:05:37;4.20;69.10
71837;DHT22;59686;51.716;7.016;2022-12-13T11:08:22;4.10;69.10
71837;DHT22;59686;51.716;7.016;2022-12-13T11:11:02;4.10;69.10
71837;DHT22;59686;51.716;7.016;2022-12-13T11:16:13;4.10;69.20
71837;DHT22;59686;51.716;7.016;2022-12-13T11:21:54;4.10;69.30
71837;DHT22;59686;51.716;7.016;2022-12-13T11:24:37;4.10;69.30
71837;DHT22;59686;51.716;7.016;2022-12-13T11:39:30;4.10;70.30
71837;DHT22;59686;51.716;7.016;2022-12-13T11:44:44;4.20;69.60
71837;DHT22;59686;51.716;7.016;2022-12-13T11:47:25;4.20;69.60
71837;DHT22;59686;51.716;7.016;2022-12-13T11:49:52;4.20;69.60
71837;DHT22;59686;51.716;7.016;2022-12-13T11:52:26;4.20;69.70
71837;DHT22;59686;51.716;7.016;2022-12-13T11:54:58;4.20;69.70
71837;DHT22;59686;51.716;7.016;2022-12-13T12:00:33;4.20;69.80
71837;DHT22;59686;51.716;7.016;2022-12-13T12:03:19;4.20;69.90
71837;DHT22;59686;51.716;7.016;2022-12-13T12:05:56;4.20;69.90
71837;DHT22;59686;51.716;7.016;2022-12-13T12:08:36;4.20;70.00
71837;DHT22;59686;51.716;7.016;2022-12-13T12:11:22;4.20;70.00
71837;DHT22;59686;51.716;7.016;2022-12-13T12:14:04;4.20;70.00
71837;DHT22;59686;51.716;7.016;2022-12-13T12:16:39;4.20;70.00
71837;DHT22;59686;51.716;7.016;2022-12-13T12:19:29;4.20;70.80
71837;DHT22;59686;51.716;7.016;2022-12-13T12:31:05;4.20;70.20
71837;DHT22;59686;51.716;7.016;2022-12-13T12:33:39;4.20;70.20
71837;DHT22;59686;51.716;7.016;2022-12-13T12:55:21;4.20;70.40
71837;DHT22;59686;51.716;7.016;2022-12-13T13:00:25;4.20;70.50
71837;DHT22;59686;51.716;7.016;2022-12-13T13:03:21;4.20;70.60
71837;DHT22;59686;51.716;7.016;2022-12-13T13:11:16;4.20;70.70
71837;DHT22;59686;51.716;7.016;2022-12-13T13:14:05;4.20;70.70
71837;DHT22;59686;51.716;7.016;2022-12-13T13:16:49;4.20;70.70
71837;DHT22;59686;51.716;7.016;2022-12-13T13:21:48;4.10;70.80
71837;DHT22;59686;51.716;7.016;2022-12-13T13:24:21;4.20;70.90
71837;DHT22;59686;51.716;7.016;2022-12-13T13:26:52;4.10;70.90
71837;DHT22;59686;51.716;7.016;2022-12-13T13:34:26;4.20;71.00
71837;DHT22;59686;51.716;7.016;2022-12-13T13:36:58;4.20;71.00
71837;DHT22;59686;51.716;7.016;2022-12-13T13:55:59;4.20;71.30
71837;DHT22;59686;51.716;7.016;2022-12-13T14:06:52;4.20;71.30
71837;DHT22;59686;51.716;7.016;2022-12-13T14:15:57;4.20;71.40
71837;DHT22;59686;51.716;7.016;2022-12-13T14:29:30;4.20;71.50
71837;DHT22;59686;51.716;7.016;2022-12-13T14:32:19;4.20;71.50
71837;DHT22;59686;51.716;7.016;2022-12-13T14:34:46;4.20;71.50
71837;DHT22;59686;51.716;7.016;2022-12-13T14:37:38;4.20;71.50
71837;DHT22;59686;51.716;7.016;2022-12-13T14:40:27;4.20;71.60
71837;DHT22;59686;51.716;7.016;2022-12-13T14:42:53;4.20;71.60
71837;DHT22;59686;51.716;7.016;2022-12-13T14:45:31;4.20;71.60
71837;DHT22;59686;51.716;7.016;2022-12-13T14:48:03;4.20;71.60
71837;DHT22;59686;51.716;7.016;2022-12-13T14:50:34;4.20;71.60
71837;DHT22;59686;51.716;7.016;2022-12-13T14:53:01;4.20;71.70
71837;DHT22;59686;51.716;7.016;2022-12-13T14:55:28;4.20;71.70
71837;DHT22;59686;51.716;7.016;2022-12-13T14:57:57;4.20;71.60
71837;DHT22;59686;51.716;7.016;2022-12-13T15:00:28;4.20;71.70
71837;DHT22;59686;51.716;7.016;2022-12-13T15:03:01;4.20;71.70
71837;DHT22;59686;51.716;7.016;2022-12-13T15:05:39;4.20;71.70
71837;DHT22;59686;51.716;7.016;2022-12-13T15:08:13;4.20;71.70
71837;DHT22;59686;51.716;7.016;2022-12-13T15:10:51;4.20;71.70
71837;DHT22;59686;51.716;7.016;2022-12-13T15:16:00;4.20;71.70
71837;DHT22;59686;51.716;7.016;2022-12-13T15:18:27;4.20;71.70
71837;DHT22;59686;51.716;7.016;2022-12-13T15:20:55;4.20;71.70
71837;DHT22;59686;51.716;7.016;2022-12-13T15:23:36;4.20;71.70
71837;DHT22;59686;51.716;7.016;2022-12-13T15:26:15;4.20;71.80
71837;DHT22;59686;51.716;7.016;2022-12-13T15:29:03;4.20;71.80
71837;DHT22;59686;51.716;7.016;2022-12-13T15:31:31;4.20;71.80
71837;DHT22;59686;51.716;7.016;2022-12-13T15:34:36;4.20;71.80
71837;DHT22;59686;51.716;7.016;2022-12-13T15:39:40;4.20;71.90
71837;DHT22;59686;51.716;7.016;2022-12-13T15:42:36;4.10;71.90
71837;DHT22;59686;51.716;7.016;2022-12-13T15:45:05;4.20;71.90
71837;DHT22;59686;51.716;7.016;2022-12-13T15:47:32;4.10;71.80
71837;DHT22;59686;51.716;7.016;2022-12-13T15:50:05;4.10;71.90
71837;DHT22;59686;51.716;7.016;2022-12-13T15:52:36;4.20;71.90
71837;DHT22;59686;51.716;7.016;2022-12-13T15:57:55;4.10;71.80
71837;DHT22;59686;51.716;7.016;2022-12-13T16:00:23;4.20;71.90
71837;DHT22;59686;51.716;7.016;2022-12-13T16:02:50;4.20;72.00
71837;DHT22;59686;51.716;7.016;2022-12-13T16:05:51;4.10;71.90
71837;DHT22;59686;51.716;7.016;2022-12-13T16:08:36;4.10;71.90
71837;DHT22;59686;51.716;7.016;2022-12-13T16:11:03;4.10;71.90
71837;DHT22;59686;51.716;7.016;2022-12-13T16:13:34;4.10;71.90
71837;DHT22;59686;51.716;7.016;2022-12-13T16:16:26;4.10;71.90
71837;DHT22;59686;51.716;7.016;2022-12-13T16:18:56;4.10;71.90
71837;DHT22;59686;51.716;7.016;2022-12-13T16:21:22;4.10;72.00
71837;DHT22;59686;51.716;7.016;2022-12-13T16:23:48;4.10;71.90
71837;DHT22;59686;51.716;7.016;2022-12-13T16:26:18;4.10;71.90
71837;DHT22;59686;51.716;7.016;2022-12-13T16:28:44;4.10;71.90
71837;DHT22;59686;51.716;7.016;2022-12-13T16:31:20;4.10;71.90
71837;DHT22;59686;51.716;7.016;2022-12-13T16:33:46;4.20;72.00
71837;DHT22;59686;51.716;7.016;2022-12-13T16:36:12;4.20;71.90
71837;DHT22;59686;51.716;7.016;2022-12-13T16:38:39;4.10;71.90
71837;DHT22;59686;51.716;7.016;2022-12-13T16:41:05;4.10;71.90
71837;DHT22;59686;51.716;7.016;2022-12-13T16:43:34;4.10;71.90
71837;DHT22;59686;51.716;7.016;2022-12-13T16:46:13;4.10;71.90
71837;DHT22;59686;51.716;7.016;2022-12-13T16:48:39;4.10;71.90
71837;DHT22;59686;51.716;7.016;2022-12-13T16:51:04;4.10;71.90
71837;DHT22;59686;51.716;7.016;2022-12-13T16:53:32;4.10;71.90
71837;DHT22;59686;51.716;7.016;2022-12-13T16:56:10;4.20;71.90
71837;DHT22;59686;51.716;7.016;2022-12-13T16:58:39;4.20;71.90
71837;DHT22;59686;51.716;7.016;2022-12-13T17:01:14;4.20;71.90
71837;DHT22;59686;51.716;7.016;2022-12-13T17:03:41;4.10;71.90
71837;DHT22;59686;51.716;7.016;2022-12-13T17:06:09;4.10;71.90
71837;DHT22;59686;51.716;7.016;2022-12-13T17:08:35;4.10;71.90
71837;DHT22;59686;51.716;7.016;2022-12-13T17:11:01;4.20;71.90
71837;DHT22;59686;51.716;7.016;2022-12-13T17:13:27;4.10;71.90
71837;DHT22;59686;51.716;7.016;2022-12-13T17:15:53;4.30;72.00
71837;DHT22;59686;51.716;7.016;2022-12-13T17:18:29;4.20;71.90
71837;DHT22;59686;51.716;7.016;2022-12-13T17:20:55;4.10;71.80
71837;DHT22;59686;51.716;7.016;2022-12-13T17:23:20;4.10;71.80
71837;DHT22;59686;51.716;7.016;2022-12-13T17:26:13;4.10;71.80
71837;DHT22;59686;51.716;7.016;2022-12-13T17:28:39;4.20;71.70
71837;DHT22;59686;51.716;7.016;2022-12-13T17:31:11;4.10;71.80
71837;DHT22;59686;51.716;7.016;2022-12-13T17:33:38;4.10;71.80
71837;DHT22;59686;51.716;7.016;2022-12-13T17:36:05;4.10;71.70
71837;DHT22;59686;51.716;7.016;2022-12-13T17:38:31;4.10;71.80
71837;DHT22;59686;51.716;7.016;2022-12-13T17:40:57;4.10;71.80
71837;DHT22;59686;51.716;7.016;2022-12-13T17:43:23;4.10;71.80
71837;DHT22;59686;51.716;7.016;2022-12-13T17:46:10;4.10;71.80
71837;DHT22;59686;51.716;7.016;2022-12-13T17:48:36;4.20;71.70
71837;DHT22;59686;51.716;7.016;2022-12-13T17:51:02;4.10;71.70
71837;DHT22;59686;51.716;7.016;2022-12-13T17:53:28;4.30;71.80
71837;DHT22;59686;51.716;7.016;2022-12-13T17:56:04;4.10;71.70
71837;DHT22;59686;51.716;7.016;2022-12-13T17:58:30;4.10;71.70
71837;DHT22;59686;51.716;7.016;2022-12-13T18:00:57;4.10;71.60
71837;DHT22;59686;51.716;7.016;2022-12-13T18:03:23;4.10;71.70
71837;DHT22;59686;51.716;7.016;2022-12-13T18:05:56;4.10;71.60
71837;DHT22;59686;51.716;7.016;2022-12-13T18:08:22;4.10;71.70
71837;DHT22;59686;51.716;7.016;2022-12-13T18:10:55;4.10;71.70
71837;DHT22;59686;51.716;7.016;2022-12-13T18:13:23;4.10;71.60
71837;DHT22;59686;51.716;7.016;2022-12-13T18:15:49;4.10;71.60
71837;DHT22;59686;51.716;7.016;2022-12-13T18:18:15;4.10;71.60
71837;DHT22;59686;51.716;7.016;2022-12-13T18:20:41;4.10;71.60
71837;DHT22;59686;51.716;7.016;2022-12-13T18:26:20;4.10;71.60
71837;DHT22;59686;51.716;7.016;2022-12-13T18:28:46;4.10;71.60
71837;DHT22;59686;51.716;7.016;2022-12-13T18:31:23;4.10;71.60
71837;DHT22;59686;51.716;7.016;2022-12-13T18:33:51;4.10;71.60
71837;DHT22;59686;51.716;7.016;2022-12-13T18:36:18;4.10;71.50
71837;DHT22;59686;51.716;7.016;2022-12-13T18:38:53;4.10;72.30
71837;DHT22;59686;51.716;7.016;2022-12-13T18:41:28;4.10;71.50
71837;DHT22;59686;51.716;7.016;2022-12-13T18:44:02;4.10;71.60
71837;DHT22;59686;51.716;7.016;2022-12-13T18:46:30;4.10;71.50